Time;durP1;ratioP1;P1;durP2;ratioP2;P2;SDS_P1;SDS_P2;PMS_P1;PMS_P2;Temp;Humidity;BMP_temperature;BMP_pressure;BME280_temperature;BME280_humidity;BME280_pressure;Samples;Min_cycle;Max_cycle;Signal;HPM_P1;HPM_P2
2022/12/04 00:01:31;;;;;;;8.20;5.97;;;23.00;52.30;;;;;;5079041;28;20075;-67
2022/12/04 00:03:59;;;;;;;7.93;5.95;;;23.00;52.30;;;;;;5080256;28;20031;-67
2022/12/04 00:06:26;;;;;;;7.40;5.82;;;23.00;52.40;;;;;;5079158;28;20040;-66
2022/12/04 00:08:52;;;;;;;8.32;6.40;;;23.00;52.30;;;;;;5083901;28;20056;-67
2022/12/04 00:11:21;;;;;;;7.80;6.28;;;23.00;52.30;;;;;;5069217;28;20031;-68
2022/12/04 00:13:47;;;;;;;7.53;6.20;;;23.00;52.40;;;;;;5081755;28;20032;-66
2022/12/04 00:16:16;;;;;;;7.25;5.90;;;23.00;52.30;;;;;;5066931;28;20024;-66
2022/12/04 00:18:42;;;;;;;7.25;6.10;;;23.00;52.40;;;;;;5077302;28;20367;-66
2022/12/04 00:21:12;;;;;;;7.32;6.05;;;23.00;52.30;;;;;;5084686;28;20031;-66
2022/12/04 00:23:38;;;;;;;6.80;5.60;;;23.00;52.30;;;;;;5064334;28;20060;-67
2022/12/04 00:26:25;;;;;;;6.13;5.28;;;22.90;52.20;;;;;;5079620;28;20539;-66
2022/12/04 00:28:57;;;;;;;7.13;5.63;;;22.90;52.30;;;;;;5063155;28;20040;-65
2022/12/04 00:31:25;;;;;;;7.20;5.55;;;22.90;52.20;;;;;;5080572;28;20032;-66
2022/12/04 00:33:51;;;;;;;6.80;5.43;;;22.90;52.30;;;;;;5079817;28;20082;-66
2022/12/04 00:36:20;;;;;;;6.28;5.28;;;22.90;52.30;;;;;;5082759;28;20024;-67
2022/12/04 00:38:46;;;;;;;6.57;5.70;;;22.90;52.30;;;;;;5054679;28;20059;-66
2022/12/04 00:41:14;;;;;;;6.30;5.03;;;22.80;52.30;;;;;;5077851;28;20451;-67
2022/12/04 00:43:40;;;;;;;6.90;5.60;;;22.80;52.30;;;;;;5079722;28;20032;-67
2022/12/04 00:46:06;;;;;;;6.43;5.50;;;22.80;52.30;;;;;;5081831;28;20526;-66
2022/12/04 00:48:32;;;;;;;7.05;5.20;;;22.70;52.30;;;;;;5062841;28;20050;-66
2022/12/04 00:51:07;;;;;;;6.85;5.38;;;22.80;52.40;;;;;;5081046;28;20025;-66
2022/12/04 00:53:32;;;;;;;6.18;5.10;;;22.70;52.50;;;;;;5065982;28;20020;-68
2022/12/04 00:56:02;;;;;;;6.22;4.97;;;22.60;52.50;;;;;;5066389;28;20023;-66
2022/12/04 00:58:28;;;;;;;6.90;5.25;;;22.60;52.50;;;;;;5079984;28;20557;-66
2022/12/04 01:01:07;;;;;;;6.85;5.18;;;22.60;52.50;;;;;;5080427;28;20062;-66
2022/12/04 01:03:33;;;;;;;6.22;5.15;;;22.60;52.50;;;;;;5080269;28;20077;-66
2022/12/04 01:06:01;;;;;;;7.03;5.32;;;22.60;52.60;;;;;;5080050;28;20020;-66
2022/12/04 01:08:27;;;;;;;5.70;4.82;;;22.50;52.60;;;;;;5065929;28;20555;-67
2022/12/04 01:10:53;;;;;;;5.63;4.60;;;22.50;52.60;;;;;;5079854;28;20056;-65
2022/12/04 01:13:19;;;;;;;5.55;4.80;;;22.50;52.70;;;;;;5064121;28;20084;-67
2022/12/04 01:15:47;;;;;;;5.38;4.45;;;22.40;52.60;;;;;;5082580;28;20021;-66
2022/12/04 01:18:14;;;;;;;7.88;5.30;;;22.40;52.70;;;;;;5078273;28;20074;-66
2022/12/04 01:20:46;;;;;;;6.10;4.72;;;22.40;52.80;;;;;;5080004;28;20179;-66
2022/12/04 01:23:13;;;;;;;6.28;5.10;;;22.30;53.20;;;;;;5078482;28;20023;-66
2022/12/04 01:25:39;;;;;;;5.20;4.30;;;22.30;52.70;;;;;;5067999;28;20127;-66
2022/12/04 01:28:06;;;;;;;5.82;4.55;;;22.30;52.80;;;;;;5080315;28;20017;-67
2022/12/04 01:30:38;;;;;;;5.82;4.22;;;22.20;52.80;;;;;;5066789;28;20070;-66
2022/12/04 01:33:03;;;;;;;6.03;4.72;;;22.20;52.80;;;;;;5075162;28;20566;-66
2022/12/04 01:35:29;;;;;;;5.35;4.70;;;22.20;52.80;;;;;;5079074;28;20099;-66
2022/12/04 01:37:54;;;;;;;5.22;4.45;;;22.20;52.80;;;;;;5079880;28;20330;-67
2022/12/04 01:40:20;;;;;;;5.43;4.30;;;22.10;52.90;;;;;;5077318;28;20025;-68
2022/12/04 01:42:46;;;;;;;5.50;4.47;;;22.10;52.90;;;;;;5080601;28;20075;-66
2022/12/04 01:45:29;;;;;;;5.30;4.22;;;22.10;52.90;;;;;;5076759;28;20383;-66
2022/12/04 01:48:00;;;;;;;5.70;4.45;;;22.10;52.90;;;;;;5080348;28;20070;-66
2022/12/04 01:50:28;;;;;;;5.82;4.45;;;22.00;53.00;;;;;;5063910;28;20483;-66
2022/12/04 01:52:54;;;;;;;5.10;4.40;;;22.00;53.00;;;;;;5062523;28;20122;-66
2022/12/04 01:55:19;;;;;;;5.30;4.28;;;22.00;53.00;;;;;;5075383;28;20170;-66
2022/12/04 01:57:45;;;;;;;5.65;4.60;;;22.00;53.00;;;;;;5076977;28;20383;-67
2022/12/04 02:00:13;;;;;;;5.68;4.30;;;21.90;53.00;;;;;;5065648;28;20024;-66
2022/12/04 02:02:42;;;;;;;5.90;4.60;;;21.90;53.10;;;;;;5078478;28;20039;-66
2022/12/04 02:05:11;;;;;;;4.75;3.90;;;21.90;53.10;;;;;;5077681;28;20036;-66
2022/12/04 02:07:39;;;;;;;5.78;4.53;;;21.90;53.10;;;;;;5082485;28;20039;-67
2022/12/04 02:10:07;;;;;;;5.28;4.32;;;21.90;53.10;;;;;;5078104;28;20029;-66
2022/12/04 02:12:33;;;;;;;4.93;4.00;;;21.80;53.10;;;;;;5061875;28;20079;-66
2022/12/04 02:15:20;;;;;;;5.90;4.55;;;21.80;53.70;;;;;;5064774;28;20262;-66
2022/12/04 02:18:04;;;;;;;5.53;4.70;;;21.80;53.20;;;;;;5061984;28;20515;-68
2022/12/04 02:20:46;;;;;;;5.20;4.20;;;21.70;53.10;;;;;;5077245;28;20016;-67
2022/12/04 02:23:14;;;;;;;4.85;3.97;;;21.70;53.20;;;;;;5074913;28;20035;-66
2022/12/04 02:25:55;;;;;;;5.18;4.22;;;21.70;53.30;;;;;;5079463;28;20023;-66
2022/12/04 02:28:35;;;;;;;4.90;4.18;;;21.70;53.30;;;;;;5078376;28;20027;-66
2022/12/04 02:31:18;;;;;;;5.78;4.25;;;21.60;53.30;;;;;;5082212;28;20028;-66
2022/12/04 02:34:01;;;;;;;5.22;4.32;;;21.60;53.40;;;;;;5082192;28;20029;-66
2022/12/04 02:36:35;;;;;;;4.47;3.83;;;21.60;53.40;;;;;;5083699;28;20025;-67
2022/12/04 02:39:13;;;;;;;5.15;4.00;;;21.60;53.40;;;;;;5081689;28;20087;-66
2022/12/04 02:41:45;;;;;;;4.88;3.95;;;21.60;53.40;;;;;;5077005;28;20028;-67
2022/12/04 02:44:22;;;;;;;4.78;3.85;;;21.50;53.40;;;;;;5086197;28;20453;-66
2022/12/04 02:46:53;;;;;;;4.55;3.70;;;21.50;53.40;;;;;;5081589;28;20060;-65
2022/12/04 02:49:26;;;;;;;5.10;4.00;;;21.50;53.50;;;;;;5070638;28;20479;-67
2022/12/04 02:51:54;;;;;;;4.60;3.70;;;21.50;53.50;;;;;;5082248;28;20039;-67
2022/12/04 02:54:27;;;;;;;4.60;3.65;;;21.40;53.50;;;;;;5081679;28;20092;-66
2022/12/04 02:56:55;;;;;;;4.75;3.95;;;21.40;53.60;;;;;;5081120;28;20021;-66
2022/12/04 02:59:38;;;;;;;4.93;3.88;;;21.40;53.60;;;;;;5082446;28;20054;-66
2022/12/04 03:02:11;;;;;;;4.50;3.60;;;21.40;53.60;;;;;;5062847;28;20068;-66
2022/12/04 03:04:38;;;;;;;4.10;3.22;;;21.40;54.20;;;;;;5084654;28;20032;-66
2022/12/04 03:07:14;;;;;;;4.75;3.60;;;21.30;53.70;;;;;;5063817;28;20484;-66
2022/12/04 03:09:51;;;;;;;4.20;3.35;;;21.30;53.80;;;;;;5081643;28;20037;-66
2022/12/04 03:12:26;;;;;;;4.20;3.60;;;21.30;53.80;;;;;;5081361;28;20395;-66
2022/12/04 03:15:24;;;;;;;4.70;3.80;;;21.30;53.80;;;;;;5084824;28;20016;-66
2022/12/04 03:17:55;;;;;;;4.90;3.55;;;21.20;53.90;;;;;;5080152;28;20048;-67
2022/12/04 03:20:22;;;;;;;4.50;3.28;;;21.20;53.90;;;;;;5083698;28;20047;-66
2022/12/04 03:22:53;;;;;;;4.18;3.20;;;21.20;53.90;;;;;;5082377;28;20028;-66
2022/12/04 03:25:21;;;;;;;4.53;3.40;;;21.20;54.00;;;;;;5062104;28;20073;-66
2022/12/04 03:27:56;;;;;;;4.13;3.20;;;21.20;54.00;;;;;;5081135;28;20040;-66
2022/12/04 03:30:22;;;;;;;4.45;3.20;;;21.10;54.00;;;;;;5063509;28;20031;-66
2022/12/04 03:32:56;;;;;;;4.07;3.25;;;21.20;54.00;;;;;;5081328;28;20418;-66
2022/12/04 03:35:34;;;;;;;4.28;3.42;;;21.10;54.00;;;;;;5079776;28;20479;-66
2022/12/04 03:38:08;;;;;;;4.20;3.30;;;21.10;54.00;;;;;;5062482;28;20023;-66
2022/12/04 03:40:53;;;;;;;3.67;2.90;;;21.10;54.10;;;;;;5081657;28;20114;-67
2022/12/04 03:43:33;;;;;;;4.35;3.40;;;21.10;54.10;;;;;;5079945;28;20028;-66
2022/12/04 03:46:12;;;;;;;3.85;3.10;;;21.10;54.10;;;;;;5077123;28;20071;-66
2022/12/04 03:48:49;;;;;;;3.95;3.10;;;21.10;54.20;;;;;;5062908;28;20038;-67
2022/12/04 03:51:37;;;;;;;4.00;3.25;;;21.00;54.10;;;;;;5069222;28;20131;-66
2022/12/04 03:54:11;;;;;;;4.47;2.90;;;21.00;54.20;;;;;;5071527;28;20103;-66
2022/12/04 03:56:48;;;;;;;3.80;2.78;;;21.00;54.70;;;;;;5081903;28;20483;-66
2022/12/04 03:59:25;;;;;;;3.70;3.10;;;21.00;54.30;;;;;;5079029;28;20526;-66
2022/12/04 04:01:53;;;;;;;4.35;3.20;;;21.00;54.30;;;;;;5066759;28;20512;-66
2022/12/04 04:04:24;;;;;;;4.03;3.20;;;21.00;54.30;;;;;;5079876;28;20078;-66
2022/12/04 04:06:54;;;;;;;4.07;3.20;;;21.00;54.30;;;;;;5078007;28;20476;-67
2022/12/04 04:09:25;;;;;;;3.80;2.97;;;20.90;54.30;;;;;;5079441;28;20544;-67
2022/12/04 04:12:04;;;;;;;3.70;2.90;;;20.90;54.30;;;;;;5083568;28;20024;-66
2022/12/04 04:26:07;;;;;;;3.53;2.67;;;20.90;54.40;;;;;;5076865;28;20438;-69
2022/12/04 04:28:34;;;;;;;3.72;2.90;;;20.90;54.40;;;;;;5045204;28;20022;-68
2022/12/04 04:31:37;;;;;;;4.10;2.97;;;20.90;54.40;;;;;;5054098;28;20025;-67
2022/12/04 04:34:28;;;;;;;3.35;2.60;;;20.80;54.40;;;;;;5074713;28;20025;-67
2022/12/04 04:36:56;;;;;;;3.55;2.83;;;20.80;54.40;;;;;;5068070;28;20057;-67
2022/12/04 04:39:56;;;;;;;3.80;2.85;;;20.80;54.50;;;;;;5066232;28;20067;-67
2022/12/04 04:42:31;;;;;;;3.35;2.47;;;20.80;54.50;;;;;;5061326;28;20035;-67
2022/12/04 04:45:06;;;;;;;3.17;2.53;;;20.80;54.50;;;;;;5068199;28;20036;-67
2022/12/04 04:47:40;;;;;;;3.40;2.70;;;20.80;54.60;;;;;;5051321;28;20066;-67
2022/12/04 04:50:08;;;;;;;3.78;2.70;;;20.80;54.60;;;;;;5058761;28;20387;-67
2022/12/04 04:52:36;;;;;;;3.90;2.97;;;20.70;54.60;;;;;;5051929;28;20061;-66
2022/12/04 04:55:03;;;;;;;3.40;2.63;;;20.70;54.60;;;;;;5072511;28;20028;-67
2022/12/04 04:57:32;;;;;;;3.72;2.50;;;20.70;54.60;;;;;;5054539;28;20124;-68
2022/12/04 05:00:11;;;;;;;4.05;2.97;;;20.70;54.60;;;;;;5071901;28;20024;-66
2022/12/04 05:02:36;;;;;;;3.35;2.50;;;20.70;54.70;;;;;;5061425;28;20461;-67
2022/12/04 05:05:03;;;;;;;3.40;2.55;;;20.70;54.70;;;;;;5057133;28;20056;-67
2022/12/04 05:07:28;;;;;;;3.20;2.40;;;20.70;54.70;;;;;;5054736;28;20033;-67
2022/12/04 05:09:54;;;;;;;3.35;2.33;;;20.70;54.70;;;;;;5055027;28;20591;-67
2022/12/04 05:12:20;;;;;;;3.20;2.40;;;20.70;54.70;;;;;;5054636;28;20079;-66
2022/12/04 05:14:47;;;;;;;3.47;2.70;;;20.70;54.70;;;;;;5055284;28;20099;-67
2022/12/04 05:17:12;;;;;;;2.90;2.40;;;20.70;54.70;;;;;;5060755;28;20513;-68
2022/12/04 05:19:54;;;;;;;3.60;2.75;;;20.70;54.80;;;;;;5048159;28;20117;-67
2022/12/04 05:22:26;;;;;;;3.13;2.40;;;20.70;54.70;;;;;;5050715;28;20083;-67
2022/12/04 05:24:52;;;;;;;3.50;2.40;;;20.70;54.80;;;;;;5069719;28;20475;-67
2022/12/04 05:27:18;;;;;;;3.13;2.17;;;20.70;54.80;;;;;;5058373;28;20020;-67
2022/12/04 05:29:44;;;;;;;3.38;2.60;;;20.60;54.80;;;;;;5050814;28;20028;-67
2022/12/04 05:32:09;;;;;;;2.95;2.20;;;20.60;54.80;;;;;;5055746;28;20114;-67
2022/12/04 05:34:35;;;;;;;3.22;2.13;;;20.60;55.30;;;;;;5029171;28;20032;-67
2022/12/04 05:37:01;;;;;;;3.22;2.42;;;20.60;54.80;;;;;;5052519;28;20034;-67
2022/12/04 05:39:26;;;;;;;3.78;2.88;;;20.60;54.80;;;;;;5054491;28;20034;-67
2022/12/04 05:41:52;;;;;;;3.53;2.60;;;20.60;54.80;;;;;;5044633;28;20036;-67
2022/12/04 05:44:18;;;;;;;3.42;2.60;;;20.60;55.00;;;;;;5057729;28;20046;-67
2022/12/04 05:46:43;;;;;;;2.85;2.15;;;20.60;55.00;;;;;;5052527;28;20029;-68
2022/12/04 05:49:09;;;;;;;3.30;2.10;;;20.60;55.00;;;;;;5043612;28;20080;-67
2022/12/04 05:51:35;;;;;;;3.00;2.28;;;20.60;55.10;;;;;;5037537;28;20040;-67
2022/12/04 05:54:00;;;;;;;3.47;2.70;;;20.60;55.00;;;;;;5023111;28;20059;-67
2022/12/04 05:56:27;;;;;;;2.90;2.15;;;20.60;55.10;;;;;;5051660;28;20492;-67
2022/12/04 05:59:02;;;;;;;3.65;2.17;;;20.60;55.10;;;;;;5048233;28;20476;-67
2022/12/04 06:01:27;;;;;;;2.63;2.08;;;20.60;55.10;;;;;;5052367;28;20031;-67
2022/12/04 06:03:53;;;;;;;2.90;2.20;;;20.60;55.10;;;;;;5042886;28;20017;-67
2022/12/04 06:06:24;;;;;;;2.85;2.10;;;20.50;55.10;;;;;;5044315;28;20060;-67
2022/12/04 06:08:52;;;;;;;3.22;2.17;;;20.50;55.20;;;;;;5041405;28;20079;-67
2022/12/04 06:11:28;;;;;;;3.10;2.30;;;20.60;55.20;;;;;;5060245;28;20024;-67
2022/12/04 06:13:55;;;;;;;2.85;2.10;;;20.50;55.20;;;;;;5055661;28;20477;-67
2022/12/04 06:16:28;;;;;;;2.58;2.00;;;20.50;55.20;;;;;;5043158;28;20032;-67
2022/12/04 06:18:56;;;;;;;3.28;2.20;;;20.50;55.70;;;;;;5054647;28;20500;-67
2022/12/04 06:21:23;;;;;;;2.80;2.13;;;20.60;55.30;;;;;;5037574;28;20039;-67
2022/12/04 06:23:50;;;;;;;2.88;2.08;;;20.50;55.30;;;;;;5051503;28;20025;-67
2022/12/04 06:26:17;;;;;;;2.63;1.83;;;20.50;55.30;;;;;;5054285;28;20024;-67
2022/12/04 06:28:43;;;;;;;2.70;2.00;;;20.50;55.30;;;;;;5057443;28;20032;-67
2022/12/04 06:31:11;;;;;;;2.67;2.05;;;20.50;55.30;;;;;;5049650;28;20021;-67
2022/12/04 06:33:37;;;;;;;2.95;2.30;;;20.50;55.30;;;;;;5053367;28;20380;-67
2022/12/04 06:36:10;;;;;;;2.95;2.20;;;20.50;55.30;;;;;;5063093;28;20542;-67
2022/12/04 06:38:38;;;;;;;2.72;2.05;;;20.50;55.30;;;;;;5032899;28;20029;-67
2022/12/04 06:41:05;;;;;;;3.17;2.08;;;20.50;55.40;;;;;;5047111;28;20056;-68
2022/12/04 06:43:32;;;;;;;3.00;2.03;;;20.50;55.40;;;;;;5054579;28;20040;-67
2022/12/04 06:46:00;;;;;;;2.80;2.00;;;20.50;55.40;;;;;;5050407;28;20021;-67
2022/12/04 06:48:28;;;;;;;3.20;2.20;;;20.50;55.50;;;;;;5048767;28;20029;-67
2022/12/04 06:51:08;;;;;;;3.03;2.10;;;20.40;55.40;;;;;;5045311;28;20023;-66
2022/12/04 06:53:34;;;;;;;3.03;2.10;;;20.50;55.50;;;;;;5056402;28;20036;-68
2022/12/04 06:56:03;;;;;;;2.75;2.00;;;20.40;55.40;;;;;;5056519;28;20480;-69
2022/12/04 06:58:29;;;;;;;2.95;2.20;;;20.50;55.50;;;;;;5045045;28;20037;-68
2022/12/04 07:00:55;;;;;;;2.95;2.25;;;20.50;55.60;;;;;;5034526;28;20557;-68
2022/12/04 07:03:22;;;;;;;3.22;2.28;;;20.50;55.50;;;;;;5034068;28;20021;-68
2022/12/04 07:05:48;;;;;;;3.40;2.20;;;20.40;55.50;;;;;;5039931;28;20121;-68
2022/12/04 07:08:15;;;;;;;2.90;2.20;;;20.40;55.50;;;;;;5048938;28;20475;-68
2022/12/04 07:10:41;;;;;;;2.80;2.17;;;20.40;56.10;;;;;;5048260;28;20112;-68
2022/12/04 07:13:09;;;;;;;3.30;2.13;;;20.40;55.50;;;;;;5055679;28;20025;-68
2022/12/04 07:15:36;;;;;;;3.22;2.30;;;20.40;55.60;;;;;;5056176;28;20525;-67
2022/12/04 07:18:02;;;;;;;2.70;2.00;;;20.40;55.60;;;;;;5054659;28;20033;-69
2022/12/04 07:20:28;;;;;;;2.50;2.03;;;20.40;55.60;;;;;;5052583;28;20025;-68
2022/12/04 07:22:54;;;;;;;3.40;2.30;;;20.40;55.60;;;;;;5037608;28;20057;-68
2022/12/04 07:25:19;;;;;;;3.30;2.20;;;20.40;55.60;;;;;;5051528;28;20510;-68
2022/12/04 07:27:45;;;;;;;4.05;2.25;;;20.40;55.60;;;;;;5056407;28;20040;-69
2022/12/04 07:30:11;;;;;;;3.20;2.20;;;20.40;55.60;;;;;;5048070;28;20031;-68
2022/12/04 07:32:37;;;;;;;3.25;1.98;;;20.40;55.60;;;;;;5045763;28;20029;-67
2022/12/04 07:35:04;;;;;;;2.85;1.98;;;20.30;55.60;;;;;;5034675;28;20029;-68
2022/12/04 07:37:30;;;;;;;3.13;2.03;;;20.40;55.70;;;;;;5032972;28;20062;-67
2022/12/04 07:39:56;;;;;;;2.60;2.03;;;20.30;55.70;;;;;;5044500;28;20048;-69
2022/12/04 07:42:21;;;;;;;3.17;2.00;;;20.40;55.70;;;;;;5028835;28;20451;-67
2022/12/04 07:44:47;;;;;;;2.90;2.03;;;20.30;55.70;;;;;;5048877;28;20484;-68
2022/12/04 07:47:13;;;;;;;3.28;2.00;;;20.30;55.70;;;;;;5054747;28;20062;-67
2022/12/04 07:49:39;;;;;;;2.95;2.20;;;20.30;55.70;;;;;;5045192;28;20024;-67
2022/12/04 07:52:05;;;;;;;3.30;2.10;;;20.30;55.70;;;;;;5049621;28;20127;-68
2022/12/04 07:54:31;;;;;;;2.78;1.88;;;20.30;55.70;;;;;;5051817;28;20439;-69
2022/12/04 07:56:56;;;;;;;3.13;2.00;;;20.30;55.70;;;;;;5052334;28;20024;-67
2022/12/04 07:59:22;;;;;;;2.40;1.65;;;20.30;55.70;;;;;;5045627;28;20033;-68
2022/12/04 08:01:48;;;;;;;3.20;2.10;;;20.30;55.70;;;;;;5043250;28;20033;-68
2022/12/04 08:04:13;;;;;;;4.15;2.30;;;20.30;55.70;;;;;;5055769;28;20025;-68
2022/12/04 08:06:39;;;;;;;2.70;1.90;;;20.30;55.70;;;;;;5039606;28;20022;-68
2022/12/04 08:09:06;;;;;;;2.97;2.10;;;20.30;55.80;;;;;;5055898;28;20491;-68
2022/12/04 08:11:32;;;;;;;2.85;2.00;;;20.30;55.80;;;;;;5032539;28;20373;-67
2022/12/04 08:14:00;;;;;;;3.25;2.20;;;20.30;55.80;;;;;;5045199;28;20058;-68
2022/12/04 08:16:27;;;;;;;2.65;2.00;;;20.30;55.80;;;;;;5044929;28;20128;-68
2022/12/04 08:18:53;;;;;;;2.78;2.08;;;20.30;55.90;;;;;;5045046;28;20021;-67
2022/12/04 08:21:22;;;;;;;2.97;2.10;;;20.20;55.80;;;;;;5050962;28;20040;-68
2022/12/04 08:23:50;;;;;;;2.80;2.10;;;20.20;55.80;;;;;;5034374;28;20017;-67
2022/12/04 08:26:16;;;;;;;3.63;2.22;;;20.20;55.90;;;;;;5034418;28;20021;-68
2022/12/04 08:28:43;;;;;;;2.80;1.98;;;20.20;55.90;;;;;;5052151;28;20013;-68
2022/12/04 08:31:21;;;;;;;3.08;2.20;;;20.20;56.00;;;;;;5048116;28;20112;-68
2022/12/04 08:33:48;;;;;;;2.72;2.05;;;20.20;56.00;;;;;;5048653;28;20096;-68
2022/12/04 08:36:18;;;;;;;3.10;2.35;;;20.20;56.00;;;;;;5054616;28;20016;-68
2022/12/04 08:38:43;;;;;;;3.15;2.22;;;20.20;56.00;;;;;;5051574;28;20029;-68
2022/12/04 08:41:12;;;;;;;3.15;2.20;;;20.20;56.60;;;;;;5034561;28;20056;-68
2022/12/04 08:43:38;;;;;;;2.63;2.10;;;20.20;56.10;;;;;;5055688;28;20480;-67
2022/12/04 08:46:09;;;;;;;3.72;2.40;;;20.20;56.10;;;;;;5049896;28;20899;-68
2022/12/04 08:48:36;;;;;;;3.78;2.83;;;20.20;56.10;;;;;;5050601;28;20341;-68
2022/12/04 08:51:06;;;;;;;5.05;2.60;;;20.20;56.20;;;;;;5055796;28;20033;-68
2022/12/04 08:53:33;;;;;;;4.53;2.88;;;20.20;56.20;;;;;;5039189;28;20079;-68
2022/12/04 08:56:01;;;;;;;5.25;3.05;;;20.20;56.20;;;;;;5055839;28;20040;-68
2022/12/04 08:58:27;;;;;;;5.35;3.53;;;20.20;56.20;;;;;;5045954;28;20033;-68
2022/12/04 09:00:53;;;;;;;5.50;3.40;;;20.20;56.70;;;;;;5033992;28;20043;-67
2022/12/04 09:03:20;;;;;;;5.47;4.13;;;20.20;56.20;;;;;;5045155;28;20033;-68
2022/12/04 09:05:46;;;;;;;5.53;3.63;;;20.20;56.30;;;;;;5054762;28;20021;-68
2022/12/04 09:08:13;;;;;;;6.88;4.00;;;20.20;56.30;;;;;;5051798;28;20056;-68
2022/12/04 09:10:39;;;;;;;6.57;4.43;;;20.10;56.20;;;;;;5059053;28;20419;-67
2022/12/04 09:13:05;;;;;;;6.90;4.30;;;20.20;56.30;;;;;;5054903;28;20033;-68
2022/12/04 09:15:31;;;;;;;6.78;4.38;;;20.10;56.30;;;;;;5050274;28;20025;-68
2022/12/04 09:17:57;;;;;;;6.95;4.10;;;20.10;56.30;;;;;;5049312;28;20113;-67
2022/12/04 09:20:23;;;;;;;7.28;4.45;;;20.10;56.30;;;;;;5053578;28;20107;-68
2022/12/04 09:22:49;;;;;;;8.27;4.60;;;20.10;56.30;;;;;;5045261;28;20028;-68
2022/12/04 09:25:15;;;;;;;6.78;4.55;;;20.10;56.30;;;;;;5052460;28;20021;-68
2022/12/04 09:27:42;;;;;;;7.65;4.82;;;20.10;56.40;;;;;;5051993;28;20029;-68
2022/12/04 09:30:10;;;;;;;7.60;4.57;;;20.10;56.40;;;;;;5051367;28;20033;-68
2022/12/04 09:32:36;;;;;;;8.45;4.80;;;20.10;56.40;;;;;;5044723;28;20028;-67
2022/12/04 09:35:01;;;;;;;7.45;4.68;;;20.10;56.40;;;;;;5053898;28;20021;-67
2022/12/04 09:37:27;;;;;;;7.28;4.40;;;20.10;56.40;;;;;;5054174;28;20040;-68
2022/12/04 09:39:52;;;;;;;7.57;4.60;;;20.10;56.40;;;;;;5053877;28;20478;-68
2022/12/04 09:42:59;;;;;;;8.55;5.20;;;20.10;56.50;;;;;;5060358;28;20091;-68
2022/12/04 09:45:25;;;;;;;10.63;5.28;;;20.10;56.50;;;;;;5043769;28;20397;-68
2022/12/04 09:47:55;;;;;;;7.03;4.80;;;20.10;56.40;;;;;;5055865;28;20063;-68
2022/12/04 09:50:42;;;;;;;8.68;5.07;;;20.10;56.50;;;;;;5047900;28;20052;-68
2022/12/04 09:53:16;;;;;;;6.78;4.80;;;20.10;56.50;;;;;;5052576;28;20433;-68
2022/12/04 09:55:57;;;;;;;7.05;4.63;;;20.10;56.60;;;;;;5040467;28;20021;-69
2022/12/04 09:58:31;;;;;;;8.10;5.10;;;20.10;56.60;;;;;;5030892;28;20365;-68
2022/12/04 10:01:01;;;;;;;6.72;4.63;;;20.10;56.70;;;;;;5039953;28;20044;-68
2022/12/04 10:03:29;;;;;;;8.00;5.00;;;20.00;56.60;;;;;;5054615;28;20537;-68
2022/12/04 10:06:07;;;;;;;7.20;5.00;;;20.00;56.70;;;;;;5057544;28;20033;-68
2022/12/04 10:08:39;;;;;;;7.68;4.80;;;20.00;57.20;;;;;;5053051;28;20438;-68
2022/12/04 10:11:43;;;;;;;7.25;4.70;;;20.00;56.80;;;;;;5052100;28;20060;-68
2022/12/04 10:14:31;;;;;;;8.27;5.50;;;20.00;56.80;;;;;;5034770;28;20031;-69
2022/12/04 10:17:30;;;;;;;7.43;4.97;;;20.10;56.90;;;;;;5036937;28;20079;-68
2022/12/04 10:20:02;;;;;;;;;;;20.00;56.90;;;;;;5040919;28;20044;-67
2022/12/04 10:22:50;;;;;;;8.75;5.10;;;20.00;56.90;;;;;;5044825;28;19912;-67
2022/12/04 10:25:20;;;;;;;7.35;4.88;;;20.00;56.90;;;;;;5059631;28;20469;-67
2022/12/04 10:28:19;;;;;;;7.47;4.50;;;20.00;56.90;;;;;;5056560;28;20082;-67
2022/12/04 10:30:47;;;;;;;6.10;4.35;;;20.00;57.00;;;;;;5047500;28;20112;-67
2022/12/04 10:33:32;;;;;;;7.72;4.88;;;20.00;57.00;;;;;;5048636;28;20034;-68
2022/12/04 10:35:58;;;;;;;8.10;5.40;;;20.00;57.10;;;;;;5053790;28;20099;-68
2022/12/04 10:38:58;;;;;;;6.70;4.53;;;20.00;57.10;;;;;;5055884;28;20035;-68
2022/12/04 10:41:27;;;;;;;7.40;4.57;;;20.00;57.70;;;;;;4984424;28;20040;-68
2022/12/04 10:43:53;;;;;;;6.70;4.47;;;20.00;57.10;;;;;;5039810;28;20036;-69
2022/12/04 10:46:33;;;;;;;6.65;4.35;;;20.00;57.70;;;;;;5037123;28;20268;-68
2022/12/04 10:49:08;;;;;;;8.07;5.45;;;20.00;57.20;;;;;;5053396;28;20028;-68
2022/12/04 10:51:42;;;;;;;6.35;4.80;;;20.00;57.30;;;;;;5056329;28;20025;-67
2022/12/04 10:54:34;;;;;;;5.88;4.25;;;20.00;57.40;;;;;;5059405;28;20024;-67
2022/12/04 10:57:04;;;;;;;6.70;4.65;;;20.00;57.40;;;;;;5044547;28;20025;-68
2022/12/04 10:59:33;;;;;;;6.30;4.63;;;20.00;57.40;;;;;;5025496;28;20024;-67
2022/12/04 11:02:09;;;;;;;;;;;20.00;57.50;;;;;;5032815;28;20021;-68
2022/12/04 11:04:35;;;;;;;6.53;4.72;;;20.00;57.60;;;;;;5046037;28;20298;-68
2022/12/04 11:07:19;;;;;;;6.53;4.40;;;20.00;57.60;;;;;;5041123;28;20111;-68
2022/12/04 11:09:55;;;;;;;6.70;4.43;;;20.00;58.50;;;;;;5044545;28;20488;-68
2022/12/04 11:12:22;;;;;;;6.93;4.50;;;20.00;59.00;;;;;;5049390;28;20028;-67
2022/12/04 11:15:10;;;;;;;6.28;4.40;;;20.10;58.90;;;;;;5053441;28;20029;-67
2022/12/04 11:17:36;;;;;;;6.38;4.50;;;20.00;58.90;;;;;;5049178;28;20033;-68
2022/12/04 11:20:06;;;;;;;6.22;3.92;;;20.00;59.20;;;;;;5034692;28;20029;-68
2022/12/04 11:22:50;;;;;;;6.15;4.45;;;20.10;60.70;;;;;;5049945;28;20024;-68
2022/12/04 11:25:18;;;;;;;6.75;4.18;;;20.10;59.80;;;;;;5041521;28;20025;-68
2022/12/04 11:27:54;;;;;;;8.00;4.45;;;20.10;59.30;;;;;;5054978;28;20032;-68
2022/12/04 11:30:35;;;;;;;7.07;4.45;;;20.10;59.20;;;;;;5047913;28;20543;-68
2022/12/04 11:33:03;;;;;;;6.57;4.50;;;20.10;59.00;;;;;;5047004;28;20063;-69
2022/12/04 11:35:31;;;;;;;7.65;4.45;;;20.00;58.70;;;;;;5051085;28;20390;-68
2022/12/04 11:38:06;;;;;;;6.35;4.65;;;20.00;58.60;;;;;;5046829;28;20059;-68
2022/12/04 11:40:33;;;;;;;7.05;4.70;;;20.00;58.50;;;;;;5057765;28;20029;-68
2022/12/04 11:43:01;;;;;;;6.13;4.30;;;20.00;58.50;;;;;;5050835;28;20063;-69
2022/12/04 11:45:27;;;;;;;6.57;4.43;;;20.10;58.50;;;;;;5057531;28;20427;-69
2022/12/04 11:47:55;;;;;;;6.07;4.07;;;20.00;58.50;;;;;;5048591;28;20057;-69
2022/12/04 11:50:47;;;;;;;6.53;4.18;;;20.00;58.50;;;;;;5051210;28;20029;-69
2022/12/04 11:53:40;;;;;;;7.72;4.32;;;20.00;58.40;;;;;;5038772;28;20036;-68
2022/12/04 11:56:18;;;;;;;5.95;4.30;;;20.00;58.50;;;;;;5044062;28;20040;-69
2022/12/04 11:59:05;;;;;;;6.75;4.35;;;20.00;58.50;;;;;;5047559;28;20532;-69
2022/12/04 12:01:41;;;;;;;6.20;4.35;;;20.00;58.50;;;;;;5050711;28;20495;-69
2022/12/04 12:04:27;;;;;;;6.43;4.25;;;20.00;58.60;;;;;;5038061;28;20115;-68
2022/12/04 12:07:23;;;;;;;5.18;3.67;;;20.00;58.50;;;;;;4987425;28;20036;-68
2022/12/04 12:10:18;;;;;;;5.65;4.07;;;20.00;58.60;;;;;;5048570;28;20028;-68
2022/12/04 12:12:46;;;;;;;6.22;4.00;;;20.00;58.60;;;;;;5050572;28;20051;-68
2022/12/04 12:15:15;;;;;;;5.80;3.90;;;20.00;58.60;;;;;;5050252;28;20028;-68
2022/12/04 12:18:15;;;;;;;5.63;3.97;;;20.00;58.60;;;;;;5052381;28;20746;-68
2022/12/04 12:21:14;;;;;;;6.15;4.05;;;20.00;58.70;;;;;;5050514;28;20032;-68
2022/12/04 12:23:58;;;;;;;7.93;4.80;;;20.00;58.70;;;;;;5042221;28;20072;-69
2022/12/04 12:26:36;;;;;;;7.80;4.40;;;20.00;58.80;;;;;;5043238;28;20090;-68
2022/12/04 12:29:17;;;;;;;6.68;4.18;;;20.00;58.70;;;;;;5059693;28;20077;-68
2022/12/04 12:31:50;;;;;;;7.85;4.50;;;20.00;59.00;;;;;;5052534;28;20044;-69
2022/12/04 12:34:29;;;;;;;6.82;4.32;;;20.00;58.90;;;;;;5054098;28;20457;-68
2022/12/04 12:36:56;;;;;;;7.70;4.80;;;20.00;59.10;;;;;;5051768;28;20055;-68
2022/12/04 12:39:26;;;;;;;6.82;4.60;;;20.00;58.90;;;;;;5051841;28;20025;-68
2022/12/04 12:41:55;;;;;;;8.48;4.78;;;20.00;59.00;;;;;;5052082;28;20029;-68
2022/12/04 12:44:29;;;;;;;10.80;5.50;;;20.00;59.00;;;;;;5058788;28;20517;-68
2022/12/04 12:47:07;;;;;;;7.50;4.80;;;20.00;59.10;;;;;;5046821;28;20028;-69
2022/12/04 12:49:51;;;;;;;7.45;4.90;;;20.00;59.50;;;;;;5052495;28;20037;-69
2022/12/04 12:52:45;;;;;;;8.05;5.22;;;20.00;59.20;;;;;;5055531;28;20025;-68
2022/12/04 12:55:22;;;;;;;6.88;4.22;;;20.00;59.20;;;;;;5048109;28;20091;-68
2022/12/04 12:57:56;;;;;;;6.13;3.90;;;20.00;59.10;;;;;;5024953;28;20388;-68
2022/12/04 13:00:24;;;;;;;6.60;4.13;;;20.00;59.30;;;;;;5057840;28;20422;-68
2022/12/04 13:03:16;;;;;;;7.78;4.28;;;20.00;59.50;;;;;;5051169;28;20024;-69
2022/12/04 13:05:49;;;;;;;6.57;4.38;;;20.10;59.60;;;;;;5002915;28;20503;-67
2022/12/04 13:08:23;;;;;;;5.63;3.70;;;20.10;59.70;;;;;;5061345;28;20028;-67
2022/12/04 13:11:16;;;;;;;6.85;3.83;;;20.20;59.80;;;;;;5030905;28;20889;-67
2022/12/04 13:13:48;;;;;;;6.95;4.03;;;20.20;59.90;;;;;;5017184;28;20033;-67
2022/12/04 13:16:23;;;;;;;7.80;3.78;;;20.20;59.70;;;;;;5057034;28;20131;-68
2022/12/04 13:19:06;;;;;;;7.72;4.03;;;20.30;59.80;;;;;;5054113;28;20048;-68
2022/12/04 13:22:17;;;;;;;5.65;3.55;;;20.30;59.80;;;;;;5020994;28;20503;-67
2022/12/04 13:24:58;;;;;;;5.82;3.83;;;20.30;59.70;;;;;;5021738;28;20047;-67